sensor_id;sensor_type;location;lat;lon;timestamp;temperature;humidity
19622;DHT22;9958;33.196;-97.114;2023-07-31T00:01:13;39.10;42.30
19622;DHT22;9958;33.196;-97.114;2023-07-31T00:03:41;39.00;42.10
19622;DHT22;9958;33.196;-97.114;2023-07-31T00:06:09;38.90;42.30
19622;DHT22;9958;33.196;-97.114;2023-07-31T00:08:38;38.80;42.50
19622;DHT22;9958;33.196;-97.114;2023-07-31T00:11:08;38.80;42.40
19622;DHT22;9958;33.196;-97.114;2023-07-31T00:13:36;38.80;42.90
19622;DHT22;9958;33.196;-97.114;2023-07-31T00:16:05;38.70;43.00
19622;DHT22;9958;33.196;-97.114;2023-07-31T00:18:34;38.60;43.10
19622;DHT22;9958;33.196;-97.114;2023-07-31T00:21:02;38.60;42.80
19622;DHT22;9958;33.196;-97.114;2023-07-31T00:23:30;38.50;42.90
19622;DHT22;9958;33.196;-97.114;2023-07-31T00:25:59;38.40;43.00
19622;DHT22;9958;33.196;-97.114;2023-07-31T00:28:29;38.40;43.10
19622;DHT22;9958;33.196;-97.114;2023-07-31T00:30:57;38.20;43.20
19622;DHT22;9958;33.196;-97.114;2023-07-31T00:33:26;38.20;43.30
19622;DHT22;9958;33.196;-97.114;2023-07-31T00:35:55;38.10;43.40
19622;DHT22;9958;33.196;-97.114;2023-07-31T00:38:23;38.10;43.70
19622;DHT22;9958;33.196;-97.114;2023-07-31T00:40:52;38.00;43.70
19622;DHT22;9958;33.196;-97.114;2023-07-31T00:43:21;38.00;43.70
19622;DHT22;9958;33.196;-97.114;2023-07-31T00:45:51;37.90;43.60
19622;DHT22;9958;33.196;-97.114;2023-07-31T00:48:19;37.80;43.80
19622;DHT22;9958;33.196;-97.114;2023-07-31T00:50:48;37.80;44.20
19622;DHT22;9958;33.196;-97.114;2023-07-31T00:53:17;37.70;44.60
19622;DHT22;9958;33.196;-97.114;2023-07-31T00:55:46;37.60;44.90
19622;DHT22;9958;33.196;-97.114;2023-07-31T00:58:14;37.60;45.40
19622;DHT22;9958;33.196;-97.114;2023-07-31T01:00:43;37.50;45.70
19622;DHT22;9958;33.196;-97.114;2023-07-31T01:03:14;37.40;46.10
19622;DHT22;9958;33.196;-97.114;2023-07-31T01:05:47;37.30;46.30
19622;DHT22;9958;33.196;-97.114;2023-07-31T01:08:24;37.30;46.60
19622;DHT22;9958;33.196;-97.114;2023-07-31T01:10:56;37.20;46.80
19622;DHT22;9958;33.196;-97.114;2023-07-31T01:13:27;37.10;47.10
19622;DHT22;9958;33.196;-97.114;2023-07-31T01:15:56;37.10;47.70
19622;DHT22;9958;33.196;-97.114;2023-07-31T01:18:25;37.00;47.90
19622;DHT22;9958;33.196;-97.114;2023-07-31T01:21:01;36.90;48.10
19622;DHT22;9958;33.196;-97.114;2023-07-31T01:26:34;36.80;49.10
19622;DHT22;9958;33.196;-97.114;2023-07-31T01:29:09;36.70;49.20
19622;DHT22;9958;33.196;-97.114;2023-07-31T01:31:38;36.60;49.40
19622;DHT22;9958;33.196;-97.114;2023-07-31T01:34:09;36.50;49.70
19622;DHT22;9958;33.196;-97.114;2023-07-31T01:36:38;36.40;50.00
19622;DHT22;9958;33.196;-97.114;2023-07-31T01:39:06;36.20;50.10
19622;DHT22;9958;33.196;-97.114;2023-07-31T01:41:36;36.10;50.50
19622;DHT22;9958;33.196;-97.114;2023-07-31T01:44:05;36.00;50.60
19622;DHT22;9958;33.196;-97.114;2023-07-31T01:46:34;35.90;50.90
19622;DHT22;9958;33.196;-97.114;2023-07-31T01:49:02;35.80;51.20
19622;DHT22;9958;33.196;-97.114;2023-07-31T01:51:32;35.70;51.70
19622;DHT22;9958;33.196;-97.114;2023-07-31T01:54:00;35.60;51.80
19622;DHT22;9958;33.196;-97.114;2023-07-31T01:56:29;35.40;51.60
19622;DHT22;9958;33.196;-97.114;2023-07-31T01:58:59;35.30;51.50
19622;DHT22;9958;33.196;-97.114;2023-07-31T02:01:27;35.20;51.70
19622;DHT22;9958;33.196;-97.114;2023-07-31T02:03:56;35.10;52.00
19622;DHT22;9958;33.196;-97.114;2023-07-31T02:06:24;35.00;51.30
19622;DHT22;9958;33.196;-97.114;2023-07-31T02:08:52;34.90;51.00
19622;DHT22;9958;33.196;-97.114;2023-07-31T02:11:21;34.90;50.60
19622;DHT22;9958;33.196;-97.114;2023-07-31T02:13:49;34.80;50.90
19622;DHT22;9958;33.196;-97.114;2023-07-31T02:16:19;34.80;51.30
19622;DHT22;9958;33.196;-97.114;2023-07-31T02:18:48;34.70;51.10
19622;DHT22;9958;33.196;-97.114;2023-07-31T02:21:16;34.70;51.10
19622;DHT22;9958;33.196;-97.114;2023-07-31T02:23:44;34.60;51.00
19622;DHT22;9958;33.196;-97.114;2023-07-31T02:26:13;34.60;51.10
19622;DHT22;9958;33.196;-97.114;2023-07-31T02:28:41;34.50;50.90
19622;DHT22;9958;33.196;-97.114;2023-07-31T02:31:10;34.50;50.80
19622;DHT22;9958;33.196;-97.114;2023-07-31T02:33:40;34.40;51.50
19622;DHT22;9958;33.196;-97.114;2023-07-31T02:36:08;34.40;51.20
19622;DHT22;9958;33.196;-97.114;2023-07-31T02:38:37;34.40;51.50
19622;DHT22;9958;33.196;-97.114;2023-07-31T02:41:05;34.30;51.50
19622;DHT22;9958;33.196;-97.114;2023-07-31T02:43:33;34.30;51.50
19622;DHT22;9958;33.196;-97.114;2023-07-31T02:46:03;34.30;51.50
19622;DHT22;9958;33.196;-97.114;2023-07-31T02:48:32;34.20;52.00
19622;DHT22;9958;33.196;-97.114;2023-07-31T02:51:03;34.20;52.10
19622;DHT22;9958;33.196;-97.114;2023-07-31T02:53:32;34.20;52.20
19622;DHT22;9958;33.196;-97.114;2023-07-31T02:56:01;34.20;52.30
19622;DHT22;9958;33.196;-97.114;2023-07-31T02:58:30;34.10;52.50
19622;DHT22;9958;33.196;-97.114;2023-07-31T03:00:59;34.10;52.70
19622;DHT22;9958;33.196;-97.114;2023-07-31T03:03:27;34.00;52.80
19622;DHT22;9958;33.196;-97.114;2023-07-31T03:05:55;34.00;53.00
19622;DHT22;9958;33.196;-97.114;2023-07-31T03:08:25;34.00;53.00
19622;DHT22;9958;33.196;-97.114;2023-07-31T03:10:54;34.00;53.50
19622;DHT22;9958;33.196;-97.114;2023-07-31T03:13:22;33.90;53.90
19622;DHT22;9958;33.196;-97.114;2023-07-31T03:15:51;33.90;53.90
19622;DHT22;9958;33.196;-97.114;2023-07-31T03:18:19;33.80;53.90
19622;DHT22;9958;33.196;-97.114;2023-07-31T03:20:47;33.80;54.10
19622;DHT22;9958;33.196;-97.114;2023-07-31T03:23:16;33.70;54.10
19622;DHT22;9958;33.196;-97.114;2023-07-31T03:25:59;33.70;54.30
19622;DHT22;9958;33.196;-97.114;2023-07-31T03:28:27;33.60;54.30
19622;DHT22;9958;33.196;-97.114;2023-07-31T03:30:55;33.60;54.60
19622;DHT22;9958;33.196;-97.114;2023-07-31T03:33:24;33.50;54.80
19622;DHT22;9958;33.196;-97.114;2023-07-31T03:35:52;33.40;54.90
19622;DHT22;9958;33.196;-97.114;2023-07-31T03:38:20;33.40;55.00
19622;DHT22;9958;33.196;-97.114;2023-07-31T03:40:49;33.30;55.20
19622;DHT22;9958;33.196;-97.114;2023-07-31T03:43:19;33.30;55.50
19622;DHT22;9958;33.196;-97.114;2023-07-31T03:45:47;33.20;55.70
19622;DHT22;9958;33.196;-97.114;2023-07-31T03:48:15;33.10;55.70
19622;DHT22;9958;33.196;-97.114;2023-07-31T03:50:44;33.10;56.00
19622;DHT22;9958;33.196;-97.114;2023-07-31T03:53:12;33.00;56.30
19622;DHT22;9958;33.196;-97.114;2023-07-31T03:55:41;33.00;56.60
19622;DHT22;9958;33.196;-97.114;2023-07-31T03:58:09;32.90;56.90
19622;DHT22;9958;33.196;-97.114;2023-07-31T04:00:40;32.80;57.10
19622;DHT22;9958;33.196;-97.114;2023-07-31T04:03:08;32.70;57.30
19622;DHT22;9958;33.196;-97.114;2023-07-31T04:05:38;32.60;57.60
19622;DHT22;9958;33.196;-97.114;2023-07-31T04:08:07;32.50;57.90
19622;DHT22;9958;33.196;-97.114;2023-07-31T04:10:35;32.50;58.20
19622;DHT22;9958;33.196;-97.114;2023-07-31T04:13:04;32.40;58.30
19622;DHT22;9958;33.196;-97.114;2023-07-31T04:15:32;32.30;58.50
19622;DHT22;9958;33.196;-97.114;2023-07-31T04:18:02;32.20;58.60
19622;DHT22;9958;33.196;-97.114;2023-07-31T04:20:30;32.20;58.70
19622;DHT22;9958;33.196;-97.114;2023-07-31T04:22:59;32.10;59.00
19622;DHT22;9958;33.196;-97.114;2023-07-31T04:25:27;32.10;59.00
19622;DHT22;9958;33.196;-97.114;2023-07-31T04:27:55;32.00;59.00
19622;DHT22;9958;33.196;-97.114;2023-07-31T04:30:24;32.00;59.20
19622;DHT22;9958;33.196;-97.114;2023-07-31T04:32:53;31.90;59.70
19622;DHT22;9958;33.196;-97.114;2023-07-31T04:35:22;31.90;59.70
19622;DHT22;9958;33.196;-97.114;2023-07-31T04:37:51;31.90;59.70
19622;DHT22;9958;33.196;-97.114;2023-07-31T04:40:19;31.80;59.70
19622;DHT22;9958;33.196;-97.114;2023-07-31T04:42:48;31.80;60.00
19622;DHT22;9958;33.196;-97.114;2023-07-31T04:45:16;31.70;60.40
19622;DHT22;9958;33.196;-97.114;2023-07-31T04:47:44;31.70;60.70
19622;DHT22;9958;33.196;-97.114;2023-07-31T04:50:13;31.60;60.90
19622;DHT22;9958;33.196;-97.114;2023-07-31T04:52:43;31.60;60.90
19622;DHT22;9958;33.196;-97.114;2023-07-31T04:55:11;31.50;60.80
19622;DHT22;9958;33.196;-97.114;2023-07-31T04:57:39;31.50;60.90
19622;DHT22;9958;33.196;-97.114;2023-07-31T05:00:08;31.40;61.40
19622;DHT22;9958;33.196;-97.114;2023-07-31T05:02:37;31.40;61.80
19622;DHT22;9958;33.196;-97.114;2023-07-31T05:05:06;31.30;62.10
19622;DHT22;9958;33.196;-97.114;2023-07-31T05:07:34;31.20;63.20
19622;DHT22;9958;33.196;-97.114;2023-07-31T05:10:05;31.20;63.90
19622;DHT22;9958;33.196;-97.114;2023-07-31T05:12:34;31.10;64.50
19622;DHT22;9958;33.196;-97.114;2023-07-31T05:15:02;31.10;65.20
19622;DHT22;9958;33.196;-97.114;2023-07-31T05:17:30;31.00;65.90
19622;DHT22;9958;33.196;-97.114;2023-07-31T05:19:59;31.00;67.00
19622;DHT22;9958;33.196;-97.114;2023-07-31T05:22:27;31.00;67.40
19622;DHT22;9958;33.196;-97.114;2023-07-31T05:24:55;30.90;67.60
19622;DHT22;9958;33.196;-97.114;2023-07-31T05:27:25;30.80;68.80
19622;DHT22;9958;33.196;-97.114;2023-07-31T05:29:53;30.80;69.40
19622;DHT22;9958;33.196;-97.114;2023-07-31T05:32:22;30.80;69.80
19622;DHT22;9958;33.196;-97.114;2023-07-31T05:34:51;30.70;70.40
19622;DHT22;9958;33.196;-97.114;2023-07-31T05:37:20;30.60;71.20
19622;DHT22;9958;33.196;-97.114;2023-07-31T05:39:49;30.60;71.20
19622;DHT22;9958;33.196;-97.114;2023-07-31T05:42:17;30.60;72.10
19622;DHT22;9958;33.196;-97.114;2023-07-31T05:44:47;30.50;72.70
19622;DHT22;9958;33.196;-97.114;2023-07-31T05:47:16;30.50;72.90
19622;DHT22;9958;33.196;-97.114;2023-07-31T05:49:44;30.40;73.20
19622;DHT22;9958;33.196;-97.114;2023-07-31T05:52:13;30.30;73.50
19622;DHT22;9958;33.196;-97.114;2023-07-31T05:54:42;30.30;74.00
19622;DHT22;9958;33.196;-97.114;2023-07-31T05:57:10;30.30;74.40
19622;DHT22;9958;33.196;-97.114;2023-07-31T05:59:38;30.30;74.80
19622;DHT22;9958;33.196;-97.114;2023-07-31T06:02:08;30.30;75.40
19622;DHT22;9958;33.196;-97.114;2023-07-31T06:04:37;30.20;75.90
19622;DHT22;9958;33.196;-97.114;2023-07-31T06:07:05;30.10;76.50
19622;DHT22;9958;33.196;-97.114;2023-07-31T06:09:34;30.10;76.80
19622;DHT22;9958;33.196;-97.114;2023-07-31T06:12:02;30.10;77.10
19622;DHT22;9958;33.196;-97.114;2023-07-31T06:14:31;30.00;77.80
19622;DHT22;9958;33.196;-97.114;2023-07-31T06:16:59;30.00;78.50
19622;DHT22;9958;33.196;-97.114;2023-07-31T06:19:29;29.90;79.30
19622;DHT22;9958;33.196;-97.114;2023-07-31T06:21:57;29.90;79.90
19622;DHT22;9958;33.196;-97.114;2023-07-31T06:24:25;29.90;80.70
19622;DHT22;9958;33.196;-97.114;2023-07-31T06:26:54;29.80;81.50
19622;DHT22;9958;33.196;-97.114;2023-07-31T06:29:23;29.80;81.90
19622;DHT22;9958;33.196;-97.114;2023-07-31T06:31:52;29.70;82.70
19622;DHT22;9958;33.196;-97.114;2023-07-31T06:34:20;29.70;83.50
19622;DHT22;9958;33.196;-97.114;2023-07-31T06:36:50;29.60;83.90
19622;DHT22;9958;33.196;-97.114;2023-07-31T06:39:18;29.60;84.40
19622;DHT22;9958;33.196;-97.114;2023-07-31T06:41:47;29.60;84.60
19622;DHT22;9958;33.196;-97.114;2023-07-31T06:44:15;29.60;85.10
19622;DHT22;9958;33.196;-97.114;2023-07-31T06:46:43;29.50;85.50
19622;DHT22;9958;33.196;-97.114;2023-07-31T06:49:11;29.50;86.30
19622;DHT22;9958;33.196;-97.114;2023-07-31T06:51:41;29.50;86.50
19622;DHT22;9958;33.196;-97.114;2023-07-31T06:54:12;29.40;87.10
19622;DHT22;9958;33.196;-97.114;2023-07-31T06:56:40;29.40;87.60
19622;DHT22;9958;33.196;-97.114;2023-07-31T06:59:08;29.40;88.00
19622;DHT22;9958;33.196;-97.114;2023-07-31T07:01:36;29.40;88.50
19622;DHT22;9958;33.196;-97.114;2023-07-31T07:04:06;29.30;88.60
19622;DHT22;9958;33.196;-97.114;2023-07-31T07:06:35;29.30;89.40
19622;DHT22;9958;33.196;-97.114;2023-07-31T07:09:03;29.20;89.30
19622;DHT22;9958;33.196;-97.114;2023-07-31T07:11:33;29.20;90.00
19622;DHT22;9958;33.196;-97.114;2023-07-31T07:14:03;29.20;90.00
19622;DHT22;9958;33.196;-97.114;2023-07-31T07:16:32;29.20;90.20
19622;DHT22;9958;33.196;-97.114;2023-07-31T07:19:00;29.10;90.20
19622;DHT22;9958;33.196;-97.114;2023-07-31T07:21:29;29.10;90.40
19622;DHT22;9958;33.196;-97.114;2023-07-31T07:23:57;29.10;90.90
19622;DHT22;9958;33.196;-97.114;2023-07-31T07:26:25;29.10;91.10
19622;DHT22;9958;33.196;-97.114;2023-07-31T07:28:55;29.10;91.30
19622;DHT22;9958;33.196;-97.114;2023-07-31T07:31:24;29.10;91.60
19622;DHT22;9958;33.196;-97.114;2023-07-31T07:33:52;29.00;91.70
19622;DHT22;9958;33.196;-97.114;2023-07-31T07:36:20;29.00;91.80
19622;DHT22;9958;33.196;-97.114;2023-07-31T07:38:49;29.00;92.20
19622;DHT22;9958;33.196;-97.114;2023-07-31T07:41:17;28.90;92.40
19622;DHT22;9958;33.196;-97.114;2023-07-31T07:43:45;28.90;92.60
19622;DHT22;9958;33.196;-97.114;2023-07-31T07:46:15;28.90;92.80
19622;DHT22;9958;33.196;-97.114;2023-07-31T07:48:43;28.90;93.00
19622;DHT22;9958;33.196;-97.114;2023-07-31T07:51:12;28.90;93.30
19622;DHT22;9958;33.196;-97.114;2023-07-31T07:53:40;28.80;93.40
19622;DHT22;9958;33.196;-97.114;2023-07-31T07:56:08;28.80;93.70
19622;DHT22;9958;33.196;-97.114;2023-07-31T07:58:37;28.80;93.90
19622;DHT22;9958;33.196;-97.114;2023-07-31T08:01:05;28.80;94.10
19622;DHT22;9958;33.196;-97.114;2023-07-31T08:03:35;28.70;94.20
19622;DHT22;9958;33.196;-97.114;2023-07-31T08:06:03;28.70;94.50
19622;DHT22;9958;33.196;-97.114;2023-07-31T08:08:32;28.70;94.60
19622;DHT22;9958;33.196;-97.114;2023-07-31T08:11:00;28.70;94.80
19622;DHT22;9958;33.196;-97.114;2023-07-31T08:13:28;28.70;95.00
19622;DHT22;9958;33.196;-97.114;2023-07-31T08:15:57;28.60;95.10
19622;DHT22;9958;33.196;-97.114;2023-07-31T08:18:25;28.60;95.20
19622;DHT22;9958;33.196;-97.114;2023-07-31T08:20:55;28.60;95.50
19622;DHT22;9958;33.196;-97.114;2023-07-31T08:23:23;28.60;95.50
19622;DHT22;9958;33.196;-97.114;2023-07-31T08:25:51;28.60;95.60
19622;DHT22;9958;33.196;-97.114;2023-07-31T08:28:20;28.60;95.60
19622;DHT22;9958;33.196;-97.114;2023-07-31T08:30:48;28.50;95.60
19622;DHT22;9958;33.196;-97.114;2023-07-31T08:33:16;28.50;95.50
19622;DHT22;9958;33.196;-97.114;2023-07-31T08:35:45;28.50;95.50
19622;DHT22;9958;33.196;-97.114;2023-07-31T08:38:15;28.50;95.70
19622;DHT22;9958;33.196;-97.114;2023-07-31T08:40:43;28.50;95.50
19622;DHT22;9958;33.196;-97.114;2023-07-31T08:43:11;28.50;95.50
19622;DHT22;9958;33.196;-97.114;2023-07-31T08:45:42;28.50;95.50
19622;DHT22;9958;33.196;-97.114;2023-07-31T08:48:12;28.50;95.40
19622;DHT22;9958;33.196;-97.114;2023-07-31T08:50:40;28.40;95.40
19622;DHT22;9958;33.196;-97.114;2023-07-31T08:53:09;28.40;95.30
19622;DHT22;9958;33.196;-97.114;2023-07-31T08:55:39;28.40;95.20
19622;DHT22;9958;33.196;-97.114;2023-07-31T08:58:08;28.40;95.20
19622;DHT22;9958;33.196;-97.114;2023-07-31T09:00:37;28.30;95.20
19622;DHT22;9958;33.196;-97.114;2023-07-31T09:03:09;28.40;95.30
19622;DHT22;9958;33.196;-97.114;2023-07-31T09:05:42;28.30;95.20
19622;DHT22;9958;33.196;-97.114;2023-07-31T09:08:12;28.30;95.00
19622;DHT22;9958;33.196;-97.114;2023-07-31T09:10:44;28.30;95.00
19622;DHT22;9958;33.196;-97.114;2023-07-31T09:13:13;28.30;94.90
19622;DHT22;9958;33.196;-97.114;2023-07-31T09:15:44;28.20;95.00
19622;DHT22;9958;33.196;-97.114;2023-07-31T09:18:13;28.20;94.90
19622;DHT22;9958;33.196;-97.114;2023-07-31T09:20:45;28.20;94.90
19622;DHT22;9958;33.196;-97.114;2023-07-31T09:23:13;28.20;94.90
19622;DHT22;9958;33.196;-97.114;2023-07-31T09:25:45;28.20;94.90
19622;DHT22;9958;33.196;-97.114;2023-07-31T09:28:13;28.10;94.90
19622;DHT22;9958;33.196;-97.114;2023-07-31T09:30:47;28.10;94.80
19622;DHT22;9958;33.196;-97.114;2023-07-31T09:33:16;28.10;94.90
19622;DHT22;9958;33.196;-97.114;2023-07-31T09:35:45;28.00;94.90
19622;DHT22;9958;33.196;-97.114;2023-07-31T09:38:15;28.00;94.80
19622;DHT22;9958;33.196;-97.114;2023-07-31T09:40:46;28.00;95.10
19622;DHT22;9958;33.196;-97.114;2023-07-31T09:43:18;27.90;95.10
19622;DHT22;9958;33.196;-97.114;2023-07-31T09:45:47;27.90;95.10
19622;DHT22;9958;33.196;-97.114;2023-07-31T09:48:16;27.90;95.40
19622;DHT22;9958;33.196;-97.114;2023-07-31T09:50:46;27.90;95.50
19622;DHT22;9958;33.196;-97.114;2023-07-31T09:53:15;27.80;95.80
19622;DHT22;9958;33.196;-97.114;2023-07-31T09:55:45;27.80;96.00
19622;DHT22;9958;33.196;-97.114;2023-07-31T09:58:14;27.70;96.10
19622;DHT22;9958;33.196;-97.114;2023-07-31T10:00:42;27.70;96.20
19622;DHT22;9958;33.196;-97.114;2023-07-31T10:03:11;27.70;96.30
19622;DHT22;9958;33.196;-97.114;2023-07-31T10:05:42;27.70;96.40
19622;DHT22;9958;33.196;-97.114;2023-07-31T10:08:13;27.60;96.50
19622;DHT22;9958;33.196;-97.114;2023-07-31T10:10:44;27.60;96.70
19622;DHT22;9958;33.196;-97.114;2023-07-31T10:13:14;27.60;96.80
19622;DHT22;9958;33.196;-97.114;2023-07-31T10:15:43;27.50;96.90
19622;DHT22;9958;33.196;-97.114;2023-07-31T10:18:12;27.50;97.20
19622;DHT22;9958;33.196;-97.114;2023-07-31T10:20:41;27.50;97.40
19622;DHT22;9958;33.196;-97.114;2023-07-31T10:23:11;27.50;97.60
19622;DHT22;9958;33.196;-97.114;2023-07-31T10:25:39;27.40;97.60
19622;DHT22;9958;33.196;-97.114;2023-07-31T10:28:09;27.40;97.70
19622;DHT22;9958;33.196;-97.114;2023-07-31T10:30:38;27.40;97.90
19622;DHT22;9958;33.196;-97.114;2023-07-31T10:33:07;27.40;98.50
19622;DHT22;9958;33.196;-97.114;2023-07-31T10:35:36;27.40;99.00
19622;DHT22;9958;33.196;-97.114;2023-07-31T10:38:10;27.30;99.40
19622;DHT22;9958;33.196;-97.114;2023-07-31T10:40:40;27.30;99.80
19622;DHT22;9958;33.196;-97.114;2023-07-31T10:43:09;27.30;99.70
19622;DHT22;9958;33.196;-97.114;2023-07-31T10:45:51;27.30;99.70
19622;DHT22;9958;33.196;-97.114;2023-07-31T10:48:20;27.20;99.60
19622;DHT22;9958;33.196;-97.114;2023-07-31T10:50:50;27.20;99.90
19622;DHT22;9958;33.196;-97.114;2023-07-31T10:53:24;27.20;99.90
19622;DHT22;9958;33.196;-97.114;2023-07-31T10:55:53;27.10;99.90
19622;DHT22;9958;33.196;-97.114;2023-07-31T10:58:27;27.20;99.90
19622;DHT22;9958;33.196;-97.114;2023-07-31T11:00:57;27.20;99.90
19622;DHT22;9958;33.196;-97.114;2023-07-31T11:03:26;27.10;99.90
19622;DHT22;9958;33.196;-97.114;2023-07-31T11:06:00;27.10;99.90
19622;DHT22;9958;33.196;-97.114;2023-07-31T11:08:30;27.10;99.90
19622;DHT22;9958;33.196;-97.114;2023-07-31T11:11:09;27.00;99.90
19622;DHT22;9958;33.196;-97.114;2023-07-31T11:13:44;27.10;99.90
19622;DHT22;9958;33.196;-97.114;2023-07-31T11:16:14;27.00;99.90
19622;DHT22;9958;33.196;-97.114;2023-07-31T11:18:44;27.00;99.90
19622;DHT22;9958;33.196;-97.114;2023-07-31T11:21:14;27.00;99.90
19622;DHT22;9958;33.196;-97.114;2023-07-31T11:23:46;27.00;99.90
19622;DHT22;9958;33.196;-97.114;2023-07-31T11:26:15;27.00;99.90
19622;DHT22;9958;33.196;-97.114;2023-07-31T11:28:47;27.00;99.90
19622;DHT22;9958;33.196;-97.114;2023-07-31T11:31:16;27.00;99.90
19622;DHT22;9958;33.196;-97.114;2023-07-31T11:33:45;26.90;99.90
19622;DHT22;9958;33.196;-97.114;2023-07-31T11:36:17;26.90;99.90
19622;DHT22;9958;33.196;-97.114;2023-07-31T11:38:46;26.90;99.90
19622;DHT22;9958;33.196;-97.114;2023-07-31T11:41:15;26.90;99.90
19622;DHT22;9958;33.196;-97.114;2023-07-31T11:43:46;26.90;99.90
19622;DHT22;9958;33.196;-97.114;2023-07-31T11:46:14;26.90;99.90
19622;DHT22;9958;33.196;-97.114;2023-07-31T11:48:44;26.90;99.90
19622;DHT22;9958;33.196;-97.114;2023-07-31T11:51:13;26.90;99.90
19622;DHT22;9958;33.196;-97.114;2023-07-31T11:53:44;26.90;99.90
19622;DHT22;9958;33.196;-97.114;2023-07-31T11:56:14;26.90;99.90
19622;DHT22;9958;33.196;-97.114;2023-07-31T11:58:47;26.90;99.90
19622;DHT22;9958;33.196;-97.114;2023-07-31T12:01:17;26.90;99.90
19622;DHT22;9958;33.196;-97.114;2023-07-31T12:03:47;26.90;99.90
19622;DHT22;9958;33.196;-97.114;2023-07-31T12:06:15;27.00;99.90
19622;DHT22;9958;33.196;-97.114;2023-07-31T12:08:44;27.00;99.90
19622;DHT22;9958;33.196;-97.114;2023-07-31T12:11:12;27.00;99.90
19622;DHT22;9958;33.196;-97.114;2023-07-31T12:13:42;27.00;99.90
19622;DHT22;9958;33.196;-97.114;2023-07-31T12:16:12;27.10;99.90
19622;DHT22;9958;33.196;-97.114;2023-07-31T12:18:40;27.20;99.90
19622;DHT22;9958;33.196;-97.114;2023-07-31T12:21:09;27.20;99.90
19622;DHT22;9958;33.196;-97.114;2023-07-31T12:23:38;27.30;99.90
19622;DHT22;9958;33.196;-97.114;2023-07-31T12:26:10;27.50;99.90
19622;DHT22;9958;33.196;-97.114;2023-07-31T12:28:40;27.60;99.80
19622;DHT22;9958;33.196;-97.114;2023-07-31T12:31:11;27.70;99.30
19622;DHT22;9958;33.196;-97.114;2023-07-31T12:33:41;27.90;99.10
19622;DHT22;9958;33.196;-97.114;2023-07-31T12:36:11;28.10;98.70
19622;DHT22;9958;33.196;-97.114;2023-07-31T12:38:40;28.50;98.60
19622;DHT22;9958;33.196;-97.114;2023-07-31T12:41:09;29.10;97.80
19622;DHT22;9958;33.196;-97.114;2023-07-31T12:43:38;29.80;96.20
19622;DHT22;9958;33.196;-97.114;2023-07-31T12:46:07;30.70;94.50
19622;DHT22;9958;33.196;-97.114;2023-07-31T12:48:37;31.60;92.70
19622;DHT22;9958;33.196;-97.114;2023-07-31T12:51:06;32.50;90.50
19622;DHT22;9958;33.196;-97.114;2023-07-31T12:53:34;33.10;88.30
19622;DHT22;9958;33.196;-97.114;2023-07-31T12:56:03;33.50;85.80
19622;DHT22;9958;33.196;-97.114;2023-07-31T12:58:31;33.90;83.70
19622;DHT22;9958;33.196;-97.114;2023-07-31T13:01:00;34.50;81.70
19622;DHT22;9958;33.196;-97.114;2023-07-31T13:03:28;35.20;78.70
19622;DHT22;9958;33.196;-97.114;2023-07-31T13:05:58;36.00;75.70
19622;DHT22;9958;33.196;-97.114;2023-07-31T13:08:27;36.60;73.00
19622;DHT22;9958;33.196;-97.114;2023-07-31T13:10:55;37.10;71.00
19622;DHT22;9958;33.196;-97.114;2023-07-31T13:13:23;37.30;69.70
19622;DHT22;9958;33.196;-97.114;2023-07-31T13:15:52;37.50;68.30
19622;DHT22;9958;33.196;-97.114;2023-07-31T13:18:20;37.50;67.80
19622;DHT22;9958;33.196;-97.114;2023-07-31T13:20:48;37.40;67.10
19622;DHT22;9958;33.196;-97.114;2023-07-31T13:23:18;37.20;67.30
19622;DHT22;9958;33.196;-97.114;2023-07-31T13:25:46;37.10;68.10
19622;DHT22;9958;33.196;-97.114;2023-07-31T13:28:15;36.80;68.30
19622;DHT22;9958;33.196;-97.114;2023-07-31T13:30:43;36.60;68.70
19622;DHT22;9958;33.196;-97.114;2023-07-31T13:33:12;36.50;69.00
19622;DHT22;9958;33.196;-97.114;2023-07-31T13:35:40;36.30;69.70
19622;DHT22;9958;33.196;-97.114;2023-07-31T13:38:09;36.10;69.10
19622;DHT22;9958;33.196;-97.114;2023-07-31T13:40:38;35.90;69.30
19622;DHT22;9958;33.196;-97.114;2023-07-31T13:43:07;35.70;69.60
19622;DHT22;9958;33.196;-97.114;2023-07-31T13:45:35;35.60;70.20
19622;DHT22;9958;33.196;-97.114;2023-07-31T13:48:04;35.50;69.60
19622;DHT22;9958;33.196;-97.114;2023-07-31T13:50:32;35.50;67.90
19622;DHT22;9958;33.196;-97.114;2023-07-31T13:53:00;35.50;68.00
19622;DHT22;9958;33.196;-97.114;2023-07-31T13:55:29;35.50;68.00
19622;DHT22;9958;33.196;-97.114;2023-07-31T13:57:58;35.50;67.30
19622;DHT22;9958;33.196;-97.114;2023-07-31T14:00:27;35.50;67.90
19622;DHT22;9958;33.196;-97.114;2023-07-31T14:02:56;35.60;68.80
19622;DHT22;9958;33.196;-97.114;2023-07-31T14:05:24;35.60;68.90
19622;DHT22;9958;33.196;-97.114;2023-07-31T14:07:52;35.60;67.70
19622;DHT22;9958;33.196;-97.114;2023-07-31T14:10:20;35.60;66.70
19622;DHT22;9958;33.196;-97.114;2023-07-31T14:12:49;35.70;66.30
19622;DHT22;9958;33.196;-97.114;2023-07-31T14:15:19;35.70;66.00
19622;DHT22;9958;33.196;-97.114;2023-07-31T14:17:47;35.90;65.00
19622;DHT22;9958;33.196;-97.114;2023-07-31T14:20:15;35.90;65.10
19622;DHT22;9958;33.196;-97.114;2023-07-31T14:22:44;35.90;64.50
19622;DHT22;9958;33.196;-97.114;2023-07-31T14:25:12;36.00;64.20
19622;DHT22;9958;33.196;-97.114;2023-07-31T14:27:40;36.10;64.30
19622;DHT22;9958;33.196;-97.114;2023-07-31T14:30:09;36.10;64.10
19622;DHT22;9958;33.196;-97.114;2023-07-31T14:32:39;36.20;63.20
19622;DHT22;9958;33.196;-97.114;2023-07-31T14:35:08;36.30;63.30
19622;DHT22;9958;33.196;-97.114;2023-07-31T14:37:40;36.40;62.30
19622;DHT22;9958;33.196;-97.114;2023-07-31T14:40:10;36.50;62.80
19622;DHT22;9958;33.196;-97.114;2023-07-31T14:42:39;36.60;63.60
19622;DHT22;9958;33.196;-97.114;2023-07-31T14:45:08;36.70;63.00
19622;DHT22;9958;33.196;-97.114;2023-07-31T14:47:39;36.80;62.10
19622;DHT22;9958;33.196;-97.114;2023-07-31T14:50:07;36.90;62.00
19622;DHT22;9958;33.196;-97.114;2023-07-31T14:52:36;37.00;60.90
19622;DHT22;9958;33.196;-97.114;2023-07-31T14:55:05;37.10;61.40
19622;DHT22;9958;33.196;-97.114;2023-07-31T14:57:35;37.20;61.60
19622;DHT22;9958;33.196;-97.114;2023-07-31T15:00:04;37.30;60.60
19622;DHT22;9958;33.196;-97.114;2023-07-31T15:02:34;37.40;60.60
19622;DHT22;9958;33.196;-97.114;2023-07-31T15:05:05;37.50;60.20
19622;DHT22;9958;33.196;-97.114;2023-07-31T15:07:33;37.60;60.20
19622;DHT22;9958;33.196;-97.114;2023-07-31T15:10:02;37.70;60.40
19622;DHT22;9958;33.196;-97.114;2023-07-31T15:12:30;37.80;59.50
19622;DHT22;9958;33.196;-97.114;2023-07-31T15:14:59;38.00;59.40
19622;DHT22;9958;33.196;-97.114;2023-07-31T15:17:27;38.10;58.90
19622;DHT22;9958;33.196;-97.114;2023-07-31T15:19:56;38.30;57.90
19622;DHT22;9958;33.196;-97.114;2023-07-31T15:22:26;38.30;56.60
19622;DHT22;9958;33.196;-97.114;2023-07-31T15:24:54;38.40;56.10
19622;DHT22;9958;33.196;-97.114;2023-07-31T15:27:23;38.60;56.00
19622;DHT22;9958;33.196;-97.114;2023-07-31T15:29:51;38.70;55.70